Time;durP1;ratioP1;P1;durP2;ratioP2;P2;SDS_P1;SDS_P2;PMS_P1;PMS_P2;Temp;Humidity;BMP_temperature;BMP_pressure;BME280_temperature;BME280_humidity;BME280_pressure;Samples;Min_cycle;Max_cycle;Signal;HPM_P1;HPM_P2
2023/09/03 00:01:07;;;;;;;4.03;2.28;;;;;;;19.66;100.00;96879.56;5039658;28;20201;-67
2023/09/03 00:03:33;;;;;;;4.70;2.13;;;;;;;19.69;100.00;96878.31;5039683;28;20201;-68
2023/09/03 00:06:00;;;;;;;2.88;1.55;;;;;;;19.51;100.00;96888.16;5039244;28;20201;-67
2023/09/03 00:08:28;;;;;;;3.55;2.10;;;;;;;19.57;100.00;96877.41;5038838;28;20263;-67
2023/09/03 00:10:54;;;;;;;2.80;1.80;;;;;;;19.55;100.00;96876.78;5039013;28;20983;-67
2023/09/03 00:13:21;;;;;;;3.08;1.70;;;;;;;19.50;100.00;96882.00;5039560;28;20210;-67
2023/09/03 00:15:48;;;;;;;3.28;1.73;;;;;;;19.73;100.00;96869.66;5039799;28;20574;-66
2023/09/03 00:18:15;;;;;;;4.20;1.60;;;;;;;19.34;100.00;96873.66;5038888;28;20232;-68
2023/09/03 00:20:41;;;;;;;1.58;1.45;;;;;;;19.32;100.00;96870.38;5039143;28;20671;-67
2023/09/03 00:23:09;;;;;;;2.00;1.38;;;;;;;19.44;100.00;96874.00;5039039;28;20213;-68
2023/09/03 00:25:37;;;;;;;3.72;2.28;;;;;;;19.47;100.00;96877.06;5038969;28;20232;-67
2023/09/03 00:28:04;;;;;;;3.00;1.50;;;;;;;19.32;100.00;96873.06;5039178;28;20227;-68
2023/09/03 00:30:30;;;;;;;6.40;3.45;;;;;;;19.16;100.00;96870.91;5039096;28;20857;-67
2023/09/03 00:32:57;;;;;;;5.10;2.60;;;;;;;19.18;100.00;96866.16;5039512;28;20201;-68
2023/09/03 00:35:23;;;;;;;3.40;2.03;;;;;;;19.05;100.00;96880.38;5039064;28;20197;-66
2023/09/03 00:37:50;;;;;;;4.47;2.55;;;;;;;19.02;100.00;96883.47;5038006;28;20295;-67
2023/09/03 00:40:16;;;;;;;3.92;1.95;;;;;;;18.93;100.00;96887.41;5038730;28;20209;-68
2023/09/03 00:42:44;;;;;;;4.43;2.35;;;;;;;19.26;100.00;96882.75;5039426;28;20210;-67
2023/09/03 00:45:11;;;;;;;4.55;2.40;;;;;;;19.01;100.00;96883.69;5038421;28;20247;-67
2023/09/03 00:47:37;;;;;;;3.95;2.00;;;;;;;18.99;100.00;96886.56;5038145;28;20217;-68
2023/09/03 00:50:05;;;;;;;4.65;2.50;;;;;;;19.21;100.00;96882.56;5039517;28;20201;-67
2023/09/03 00:52:32;;;;;;;4.22;2.55;;;;;;;19.08;100.00;96873.81;5038430;28;20216;-66
2023/09/03 00:54:59;;;;;;;2.72;1.83;;;;;;;19.04;100.00;96878.75;5038576;28;20204;-67
2023/09/03 00:57:25;;;;;;;3.13;1.85;;;;;;;19.94;100.00;96873.84;5038666;28;20233;-67
2023/09/03 00:59:54;;;;;;;3.50;1.70;;;;;;;20.45;100.00;96872.50;5037990;28;20957;-67
2023/09/03 01:02:22;;;;;;;2.00;1.42;;;;;;;20.43;100.00;96872.72;5036837;28;20205;-67
2023/09/03 01:04:48;;;;;;;3.03;1.67;;;;;;;20.37;100.00;96875.47;5038422;28;20228;-67
2023/09/03 01:07:16;;;;;;;2.80;1.70;;;;;;;20.47;100.00;96879.28;5037384;28;20221;-67
2023/09/03 01:09:43;;;;;;;3.08;1.88;;;;;;;20.52;100.00;96875.91;5038556;28;20201;-67
2023/09/03 01:12:18;;;;;;;2.60;1.60;;;;;;;20.81;100.00;96876.00;5038316;28;20205;-67
2023/09/03 01:14:58;;;;;;;3.08;1.40;;;;;;;20.88;100.00;96874.88;5038824;28;20201;-67
2023/09/03 01:17:32;;;;;;;2.72;1.52;;;;;;;20.79;100.00;96875.44;5037162;28;20233;-68
2023/09/03 01:20:07;;;;;;;2.55;1.40;;;;;;;20.88;100.00;96879.44;5038470;28;20836;-67
2023/09/03 01:22:55;;;;;;;3.42;1.23;;;;;;;20.83;100.00;96882.78;5037924;28;20201;-67
2023/09/03 01:25:38;;;;;;;3.10;1.73;;;;;;;21.12;100.00;96890.03;5038219;28;20240;-67
2023/09/03 01:28:21;;;;;;;2.15;1.08;;;;;;;21.11;100.00;96883.03;5037814;28;20221;-67
2023/09/03 01:30:48;;;;;;;1.63;1.15;;;;;;;20.79;100.00;96883.47;5038655;28;20216;-67
2023/09/03 01:33:17;;;;;;;1.80;1.35;;;;;;;20.85;100.00;96882.59;5037248;28;20577;-67
2023/09/03 01:35:45;;;;;;;3.33;1.42;;;;;;;20.76;100.00;96885.78;5038220;28;20204;-67
2023/09/03 01:38:12;;;;;;;3.05;1.25;;;;;;;20.38;100.00;96887.84;5037129;28;20228;-67
2023/09/03 01:40:39;;;;;;;2.30;1.10;;;;;;;19.80;100.00;96885.66;5038274;28;20201;-67
2023/09/03 01:43:05;;;;;;;1.88;1.30;;;;;;;20.03;100.00;96893.94;5037436;28;21067;-68
2023/09/03 01:45:39;;;;;;;2.30;1.45;;;;;;;20.52;100.00;96900.00;5038440;28;20221;-67
2023/09/03 01:48:14;;;;;;;2.20;1.20;;;;;;;20.61;100.00;96901.34;5036820;28;20590;-67
2023/09/03 01:50:44;;;;;;;2.72;1.58;;;;;;;20.64;100.00;96915.13;5038033;28;20215;-68
2023/09/03 01:53:18;;;;;;;3.08;1.80;;;;;;;20.59;100.00;96922.19;5038195;28;20212;-68
2023/09/03 01:55:49;;;;;;;1.67;1.33;;;;;;;20.33;100.00;96922.47;5037566;28;20209;-67
2023/09/03 01:58:17;;;;;;;2.10;1.20;;;;;;;20.34;100.00;96913.38;5036720;28;20324;-67
2023/09/03 02:00:46;;;;;;;1.92;1.42;;;;;;;20.48;100.00;96914.88;5037636;28;20672;-67
2023/09/03 02:03:13;;;;;;;4.38;1.27;;;;;;;20.20;100.00;96923.41;5036008;28;20231;-68
2023/09/03 02:05:39;;;;;;;1.65;1.13;;;;;;;20.18;100.00;96922.00;5037417;28;20225;-67
2023/09/03 02:08:06;;;;;;;2.30;1.67;;;;;;;20.10;100.00;96921.44;5037223;28;20232;-67
2023/09/03 02:10:33;;;;;;;2.13;1.45;;;;;;;20.13;100.00;96918.34;5036807;28;20657;-67
2023/09/03 02:13:00;;;;;;;1.80;1.33;;;;;;;20.06;100.00;96918.41;5037099;28;20209;-68
2023/09/03 02:15:26;;;;;;;4.40;1.63;;;;;;;20.15;100.00;96921.59;5037761;28;20663;-67
2023/09/03 02:17:55;;;;;;;1.75;1.27;;;;;;;20.49;100.00;96913.84;5034423;28;20221;-67
2023/09/03 02:20:22;;;;;;;2.20;1.30;;;;;;;20.28;100.00;96917.75;5036471;28;21026;-67
2023/09/03 02:22:48;;;;;;;1.17;1.08;;;;;;;20.19;100.00;96912.94;5037313;28;20583;-67
2023/09/03 02:25:15;;;;;;;1.88;1.27;;;;;;;20.25;100.00;96920.06;5036532;28;20221;-67
2023/09/03 02:27:41;;;;;;;1.50;1.13;;;;;;;20.31;100.00;96919.19;5036280;28;20339;-68
2023/09/03 02:30:09;;;;;;;1.80;1.20;;;;;;;20.42;100.00;96916.59;5036689;28;20211;-67
2023/09/03 02:32:35;;;;;;;2.25;1.33;;;;;;;20.06;100.00;96918.41;5036923;28;20197;-68
2023/09/03 02:35:03;;;;;;;3.78;1.60;;;;;;;20.26;100.00;96925.22;5036485;28;20201;-67
2023/09/03 02:37:30;;;;;;;2.63;1.48;;;;;;;19.70;100.00;96934.28;5036370;28;20746;-67
2023/09/03 02:39:56;;;;;;;2.72;1.05;;;;;;;19.76;100.00;96933.41;5036714;28;20201;-69
2023/09/03 02:42:24;;;;;;;1.80;1.40;;;;;;;19.85;100.00;96948.16;5037105;28;20232;-66
2023/09/03 02:44:50;;;;;;;1.85;1.30;;;;;;;20.01;100.00;96947.66;5036411;28;20228;-67
2023/09/03 02:47:17;;;;;;;1.67;1.33;;;;;;;20.07;100.00;96946.78;5035433;28;20719;-67
2023/09/03 02:49:43;;;;;;;2.08;1.08;;;;;;;20.18;100.00;96947.94;5036941;28;20201;-67
2023/09/03 02:52:11;;;;;;;1.20;1.10;;;;;;;20.48;100.00;96944.34;5036896;28;20209;-68
2023/09/03 02:54:38;;;;;;;2.33;1.10;;;;;;;19.88;100.00;96953.09;5035879;28;20197;-68
2023/09/03 02:57:04;;;;;;;1.80;1.25;;;;;;;20.03;100.00;96952.78;5035779;28;20224;-67
2023/09/03 02:59:32;;;;;;;1.58;1.15;;;;;;;20.06;100.00;96955.88;5036467;28;20235;-68
2023/09/03 03:01:58;;;;;;;1.30;0.80;;;;;;;19.85;100.00;96942.81;5036175;28;20259;-67
2023/09/03 03:04:25;;;;;;;1.83;1.00;;;;;;;20.23;100.00;96943.56;5036558;28;20205;-67
2023/09/03 03:06:51;;;;;;;2.10;1.30;;;;;;;20.18;100.00;96940.72;5036357;28;20596;-67
2023/09/03 03:09:19;;;;;;;2.55;1.20;;;;;;;20.42;100.00;96934.53;5035035;28;20205;-67
2023/09/03 03:11:46;;;;;;;1.33;1.02;;;;;;;19.94;100.00;96941.53;5037120;28;20311;-67
2023/09/03 03:14:13;;;;;;;2.03;1.00;;;;;;;19.74;100.00;96946.19;5035688;28;21250;-68
2023/09/03 03:16:40;;;;;;;1.90;1.25;;;;;;;19.90;100.00;96950.19;5035985;28;20251;-67
2023/09/03 03:19:06;;;;;;;1.55;1.02;;;;;;;19.92;100.00;96959.69;5035363;28;20216;-67
2023/09/03 03:21:33;;;;;;;2.00;1.20;;;;;;;20.05;100.00;96951.53;5037230;28;20686;-67
2023/09/03 03:23:59;;;;;;;2.00;1.20;;;;;;;19.95;100.00;96947.72;5036244;28;20201;-67
2023/09/03 03:26:27;;;;;;;1.35;1.10;;;;;;;20.30;100.00;96947.00;5035366;28;20232;-67
2023/09/03 03:28:54;;;;;;;1.33;1.00;;;;;;;19.96;100.00;96954.69;5036148;28;20201;-68
2023/09/03 03:31:20;;;;;;;1.35;1.17;;;;;;;19.95;100.00;96959.22;5036206;28;20216;-67
2023/09/03 03:33:48;;;;;;;2.65;1.50;;;;;;;19.29;100.00;96959.00;5035892;28;20205;-67
2023/09/03 03:36:15;;;;;;;2.47;1.48;;;;;;;19.00;100.00;96957.69;5035549;28;20216;-68
2023/09/03 03:38:42;;;;;;;1.38;1.10;;;;;;;19.78;100.00;96951.91;5036182;28;20201;-67
2023/09/03 03:41:09;;;;;;;2.45;1.70;;;;;;;19.92;100.00;96948.13;5035346;28;20262;-67
2023/09/03 03:43:38;;;;;;;1.45;1.20;;;;;;;20.23;100.00;96940.88;5035643;28;20626;-67
2023/09/03 03:46:05;;;;;;;1.75;1.10;;;;;;;20.01;100.00;96942.31;5035644;28;20221;-67
2023/09/03 03:48:32;;;;;;;2.90;1.25;;;;;;;19.95;100.00;96937.81;5035704;28;20252;-66
2023/09/03 03:50:59;;;;;;;1.88;1.20;;;;;;;19.96;100.00;96943.97;5035258;28;20201;-67
2023/09/03 03:53:25;;;;;;;2.13;1.40;;;;;;;19.86;100.00;96939.09;5035828;28;20200;-67
2023/09/03 03:55:59;;;;;;;1.17;1.00;;;;;;;20.34;100.00;96941.00;5036046;28;20198;-68
2023/09/03 03:58:26;;;;;;;2.70;1.80;;;;;;;19.86;100.00;96947.13;5034869;28;20659;-68
2023/09/03 04:00:55;;;;;;;1.70;1.13;;;;;;;20.09;100.00;96949.25;5035952;28;20205;-67
2023/09/03 04:03:22;;;;;;;2.33;1.35;;;;;;;19.92;100.00;96965.03;5035586;28;20209;-67
2023/09/03 04:05:56;;;;;;;2.47;1.35;;;;;;;20.26;100.00;96972.56;5035914;28;20228;-67
2023/09/03 04:08:23;;;;;;;2.22;1.30;;;;;;;19.70;100.00;96970.91;5034642;28;20230;-67
2023/09/03 04:10:56;;;;;;;1.88;1.35;;;;;;;20.02;100.00;96968.03;5035963;28;20208;-68
2023/09/03 04:13:22;;;;;;;1.70;1.20;;;;;;;19.58;100.00;96977.97;5035818;28;20625;-67
2023/09/03 04:15:49;;;;;;;6.57;1.23;;;;;;;19.52;100.00;96975.34;5035631;28;20200;-68
2023/09/03 04:18:17;;;;;;;1.85;1.15;;;;;;;19.64;100.00;96972.59;5034963;28;20232;-67
2023/09/03 04:20:43;;;;;;;2.20;1.13;;;;;;;19.37;100.00;96977.47;5036228;28;20197;-66
2023/09/03 04:23:10;;;;;;;2.22;1.10;;;;;;;19.28;100.00;96976.88;5034737;28;20216;-66
2023/09/03 04:25:36;;;;;;;1.27;1.02;;;;;;;19.38;100.00;96987.13;5037467;28;20232;-67
2023/09/03 04:28:03;;;;;;;2.85;1.38;;;;;;;19.57;100.00;96981.69;5038279;28;20225;-67
2023/09/03 04:30:30;;;;;;;2.17;1.17;;;;;;;19.68;100.00;96994.38;5039009;28;20255;-67
2023/09/03 04:32:57;;;;;;;1.90;1.10;;;;;;;19.63;100.00;96997.69;5039094;28;20209;-67
2023/09/03 04:35:24;;;;;;;1.73;1.38;;;;;;;19.96;100.00;96992.16;5039777;28;20663;-67
2023/09/03 04:37:51;;;;;;;1.27;1.00;;;;;;;19.71;100.00;96994.75;5038275;28;20220;-68
2023/09/03 04:40:18;;;;;;;1.58;1.10;;;;;;;19.51;100.00;96998.56;5038709;28;20236;-67
2023/09/03 04:42:44;;;;;;;5.20;1.30;;;;;;;19.70;100.00;97006.50;5039377;28;20213;-66
2023/09/03 04:45:11;;;;;;;2.10;1.40;;;;;;;19.72;100.00;97001.75;5038457;28;20228;-67
2023/09/03 04:47:37;;;;;;;1.27;1.00;;;;;;;19.72;100.00;97012.44;5038006;28;20286;-67
2023/09/03 04:50:04;;;;;;;2.58;1.20;;;;;;;19.63;100.00;97008.38;5038865;28;20201;-67
2023/09/03 04:52:34;;;;;;;2.00;1.25;;;;;;;19.94;100.00;97005.75;5038911;28;20855;-66
2023/09/03 04:55:01;;;;;;;1.73;1.20;;;;;;;19.77;100.00;96999.25;5038410;28;20210;-67
2023/09/03 04:57:27;;;;;;;0.98;0.77;;;;;;;19.91;100.00;97011.53;5037978;28;20229;-67
2023/09/03 04:59:54;;;;;;;2.42;1.40;;;;;;;19.42;100.00;97013.22;5037554;28;20542;-67
2023/09/03 05:02:21;;;;;;;6.75;2.03;;;;;;;19.71;100.00;97026.03;5038318;28;20216;-67
2023/09/03 05:04:47;;;;;;;2.63;1.25;;;;;;;19.85;100.00;97020.38;5038801;28;20204;-67
2023/09/03 05:07:14;;;;;;;4.32;1.67;;;;;;;19.83;100.00;97030.50;5038078;28;20233;-67
2023/09/03 05:09:41;;;;;;;3.95;1.70;;;;;;;20.28;100.00;97029.38;5038028;28;20213;-67
2023/09/03 05:12:08;;;;;;;4.25;1.60;;;;;;;20.23;100.00;97040.72;5038051;28;20213;-67
2023/09/03 05:14:35;;;;;;;2.75;1.63;;;;;;;20.11;100.00;97035.47;5038169;28;20209;-68
2023/09/03 05:17:02;;;;;;;11.95;2.22;;;;;;;20.14;100.00;97033.19;5037933;28;20240;-66
2023/09/03 05:19:29;;;;;;;3.00;1.58;;;;;;;20.21;100.00;97040.16;5037601;28;20291;-67
2023/09/03 05:21:55;;;;;;;4.07;1.65;;;;;;;20.21;100.00;97039.31;5038567;28;20208;-66
2023/09/03 05:24:22;;;;;;;2.28;1.13;;;;;;;20.13;100.00;97049.47;5037793;28;20773;-66
2023/09/03 05:26:50;;;;;;;3.20;1.83;;;;;;;20.51;100.00;97057.19;5037597;28;20236;-66
2023/09/03 05:29:17;;;;;;;3.35;1.63;;;;;;;20.09;100.00;97051.75;5037781;28;20296;-67
2023/09/03 05:31:44;;;;;;;1.92;1.50;;;;;;;19.10;100.00;97050.75;5038655;28;20235;-66
2023/09/03 05:34:10;;;;;;;3.70;1.75;;;;;;;18.99;100.00;97059.38;5038138;28;20205;-65
2023/09/03 05:36:37;;;;;;;2.65;1.85;;;;;;;19.02;100.00;97061.66;5037270;28;20741;-68
2023/09/03 05:39:04;;;;;;;3.47;2.00;;;;;;;19.08;100.00;97058.16;5037005;28;20247;-66
2023/09/03 05:41:31;;;;;;;2.05;1.38;;;;;;;19.11;100.00;97060.44;5038464;28;20205;-66
2023/09/03 05:44:05;;;;;;;2.95;1.52;;;;;;;19.52;100.00;97059.03;5038187;28;20204;-66
2023/09/03 05:46:32;;;;;;;3.92;1.95;;;;;;;19.46;100.00;97061.75;5037626;28;20243;-66
2023/09/03 05:48:58;;;;;;;2.92;1.90;;;;;;;19.39;100.00;97071.66;5037707;28;20212;-65
2023/09/03 05:51:25;;;;;;;2.63;1.40;;;;;;;19.46;100.00;97065.22;5037782;28;20587;-67
2023/09/03 05:53:51;;;;;;;6.40;1.80;;;;;;;19.68;100.00;97067.41;5037566;28;20583;-66
2023/09/03 05:56:18;;;;;;;4.28;2.05;;;;;;;19.80;100.00;97072.91;5037411;28;20216;-67
2023/09/03 05:58:44;;;;;;;3.72;2.00;;;;;;;19.68;100.00;97077.28;5038311;28;20216;-67
2023/09/03 06:01:13;;;;;;;2.40;1.50;;;;;;;19.91;100.00;97065.03;5037411;28;20209;-66
2023/09/03 06:03:40;;;;;;;5.47;1.75;;;;;;;19.82;100.00;97066.28;5037494;28;20212;-67
2023/09/03 06:06:08;;;;;;;3.40;1.70;;;;;;;19.92;100.00;97069.38;5037241;28;20233;-66
2023/09/03 06:08:36;;;;;;;3.80;2.17;;;;;;;20.13;100.00;97062.84;5037068;28;20229;-65
2023/09/03 06:11:03;;;;;;;1.90;1.42;;;;;;;20.12;100.00;97066.56;5035467;28;20205;-66
2023/09/03 06:13:31;;;;;;;3.10;1.38;;;;;;;20.39;100.00;97055.44;5036453;28;20220;-65
2023/09/03 06:15:58;;;;;;;4.43;1.75;;;;;;;20.44;100.00;97060.97;5035475;28;20287;-66
2023/09/03 06:18:26;;;;;;;2.00;1.45;;;;;;;20.74;100.00;97059.31;5035475;28;20229;-67
2023/09/03 06:20:53;;;;;;;4.05;1.80;;;;;;;21.02;100.00;97049.75;5036754;28;20201;-67
2023/09/03 06:23:20;;;;;;;5.05;1.80;;;;;;;21.17;100.00;97066.31;5035486;28;20293;-67
2023/09/03 06:25:47;;;;;;;3.72;1.75;;;;;;;21.15;100.00;97066.50;5035727;28;20249;-66
2023/09/03 06:28:14;;;;;;;3.05;1.88;;;;;;;20.89;100.00;97058.75;5035736;28;20229;-67
2023/09/03 06:30:41;;;;;;;5.70;2.10;;;;;;;20.82;100.00;97067.06;5037077;28;20209;-65
2023/09/03 06:33:08;;;;;;;2.75;1.83;;;;;;;21.17;100.00;97072.47;5036953;28;20818;-66
2023/09/03 06:35:36;;;;;;;2.92;1.55;;;;;;;20.68;100.00;97068.19;5036287;28;20255;-65
2023/09/03 06:38:02;;;;;;;2.65;1.80;;;;;;;20.75;100.00;97064.44;5035653;28;20232;-66
2023/09/03 06:40:29;;;;;;;5.72;1.35;;;;;;;21.11;100.00;97069.88;5035692;28;20201;-65
2023/09/03 06:42:55;;;;;;;3.70;1.42;;;;;;;21.22;100.00;97067.28;5036015;28;20216;-66
2023/09/03 06:45:22;;;;;;;3.60;1.65;;;;;;;21.32;100.00;97072.94;5035477;28;20730;-66
2023/09/03 06:47:48;;;;;;;3.67;1.73;;;;;;;21.40;100.00;97080.69;5035185;28;20335;-65
2023/09/03 06:50:16;;;;;;;2.10;1.52;;;;;;;21.30;100.00;97085.75;5036652;28;20231;-66
2023/09/03 06:52:44;;;;;;;2.92;1.60;;;;;;;20.85;100.00;97092.38;5036913;28;20224;-66
2023/09/03 06:55:10;;;;;;;3.70;2.00;;;;;;;20.65;100.00;97096.22;5037068;28;20220;-67
2023/09/03 06:57:37;;;;;;;2.30;1.63;;;;;;;20.69;100.00;97102.78;5036194;28;20232;-67
2023/09/03 07:00:06;;;;;;;3.35;1.98;;;;;;;20.70;100.00;97099.06;5036812;28;20197;-67
2023/09/03 07:02:33;;;;;;;4.15;1.80;;;;;;;20.89;100.00;97100.81;5036249;28;20209;-68
2023/09/03 07:05:00;;;;;;;2.47;1.70;;;;;;;21.07;100.00;97111.56;5034863;28;20204;-68
2023/09/03 07:07:27;;;;;;;2.88;2.00;;;;;;;21.50;100.00;97118.53;5032715;28;20229;-67
2023/09/03 07:09:55;;;;;;;3.83;2.28;;;;;;;21.85;100.00;97124.94;5036335;28;20232;-67
2023/09/03 07:12:23;;;;;;;3.00;1.63;;;;;;;21.88;100.00;97129.84;5036041;28;20216;-68
2023/09/03 07:14:50;;;;;;;2.97;1.75;;;;;;;21.72;100.00;97130.47;5035597;28;20201;-68
2023/09/03 07:17:16;;;;;;;2.65;1.45;;;;;;;21.75;100.00;97136.19;5033305;28;20267;-66
2023/09/03 07:19:43;;;;;;;2.85;1.90;;;;;;;21.81;100.00;97135.31;5037086;28;20205;-66
2023/09/03 07:22:10;;;;;;;2.53;1.60;;;;;;;21.32;100.00;97147.19;5035391;28;20228;-68
2023/09/03 07:24:36;;;;;;;2.13;1.60;;;;;;;21.85;100.00;97154.47;5036394;28;20204;-68
2023/09/03 07:27:05;;;;;;;2.83;1.58;;;;;;;22.40;100.00;97148.81;5035321;28;20225;-66
2023/09/03 07:29:31;;;;;;;2.17;1.40;;;;;;;22.23;100.00;97153.16;5034859;28;20208;-67
2023/09/03 07:31:58;;;;;;;2.30;1.48;;;;;;;22.21;100.00;97161.44;5034836;28;20216;-67
2023/09/03 07:34:24;;;;;;;7.85;1.58;;;;;;;22.25;100.00;97168.00;5035302;28;20452;-67
2023/09/03 07:36:51;;;;;;;2.55;1.70;;;;;;;22.30;100.00;97165.50;5035508;28;20217;-67
2023/09/03 07:39:17;;;;;;;2.58;1.40;;;;;;;22.20;100.00;97170.53;5035608;28;20209;-67
2023/09/03 07:41:47;;;;;;;3.25;1.85;;;;;;;22.61;100.00;97167.13;5036214;28;20208;-67
2023/09/03 07:44:15;;;;;;;3.67;1.80;;;;;;;22.81;100.00;97163.91;5034659;28;20201;-67
2023/09/03 07:46:41;;;;;;;5.10;1.42;;;;;;;22.88;100.00;97174.53;5034952;28;20225;-67
2023/09/03 07:49:08;;;;;;;3.25;2.03;;;;;;;23.04;100.00;97169.34;5035448;28;20694;-68
2023/09/03 07:51:34;;;;;;;3.17;1.60;;;;;;;23.24;100.00;97174.38;5036048;28;20220;-67
2023/09/03 07:54:01;;;;;;;2.72;1.45;;;;;;;23.30;100.00;97178.84;5036077;28;20267;-67
2023/09/03 07:56:30;;;;;;;1.40;1.20;;;;;;;23.51;100.00;97187.13;5035292;28;20235;-67
2023/09/03 07:58:57;;;;;;;2.05;1.30;;;;;;;23.79;100.00;97180.03;5034298;28;20297;-67
2023/09/03 08:01:25;;;;;;;2.65;1.75;;;;;;;23.96;100.00;97176.34;5037449;28;20193;-67
2023/09/03 08:03:51;;;;;;;2.53;1.63;;;;;;;23.39;100.00;97187.13;5038427;28;20197;-67
2023/09/03 08:06:18;;;;;;;2.85;1.35;;;;;;;23.71;100.00;97182.25;5038641;28;20232;-66
2023/09/03 08:08:44;;;;;;;1.85;1.42;;;;;;;23.84;100.00;97176.63;5037817;28;20554;-68
2023/09/03 08:11:11;;;;;;;2.20;1.50;;;;;;;23.67;100.00;97181.88;5038552;28;20690;-68
2023/09/03 08:13:37;;;;;;;1.80;1.33;;;;;;;23.47;100.00;97181.44;5039660;28;20863;-66
2023/09/03 08:16:04;;;;;;;1.92;1.20;;;;;;;23.73;100.00;97170.19;5038916;28;20205;-68
2023/09/03 08:18:32;;;;;;;3.40;1.60;;;;;;;23.68;100.00;97170.06;5037955;28;20241;-67
2023/09/03 08:20:58;;;;;;;2.58;1.40;;;;;;;23.34;100.00;97176.28;5037649;28;20205;-67
2023/09/03 08:23:25;;;;;;;2.50;1.23;;;;;;;23.73;100.00;97175.59;5038924;28;20690;-68
2023/09/03 08:25:51;;;;;;;2.72;1.50;;;;;;;23.93;100.00;97168.75;5039604;28;20197;-68
2023/09/03 08:28:18;;;;;;;2.35;1.40;;;;;;;24.00;100.00;97160.53;5038200;28;20232;-68
2023/09/03 08:30:46;;;;;;;3.08;1.60;;;;;;;23.82;100.00;97174.16;5038886;28;20678;-67
2023/09/03 08:33:13;;;;;;;2.00;1.40;;;;;;;24.11;100.00;97168.59;5039477;28;20228;-67
2023/09/03 08:35:41;;;;;;;1.35;0.98;;;;;;;24.25;100.00;97169.97;5037617;28;20201;-67
2023/09/03 08:38:07;;;;;;;2.63;1.30;;;;;;;24.40;100.00;97173.00;5037484;28;20221;-67
2023/09/03 08:40:34;;;;;;;1.55;1.10;;;;;;;24.47;100.00;97173.66;5037046;28;20315;-67
2023/09/03 08:43:04;;;;;;;4.10;1.20;;;;;;;24.92;100.00;97167.19;5038005;28;20216;-67
2023/09/03 08:45:34;;;;;;;1.92;1.02;;;;;;;25.10;100.00;97168.88;5038418;28;20218;-68
2023/09/03 08:48:00;;;;;;;1.77;1.30;;;;;;;24.87;100.00;97174.38;5038133;28;20236;-67
2023/09/03 08:50:29;;;;;;;4.28;2.00;;;;;;;24.62;100.00;97172.06;5037358;28;20205;-67
2023/09/03 08:52:58;;;;;;;2.90;1.58;;;;;;;24.81;100.00;97184.28;5036885;28;20213;-67
2023/09/03 08:55:29;;;;;;;3.45;1.40;;;;;;;24.91;100.00;97187.16;5038227;28;20228;-67
2023/09/03 08:57:56;;;;;;;1.58;1.17;;;;;;;24.79;100.00;97189.06;5037913;28;20310;-67
2023/09/03 09:00:23;;;;;;;1.15;1.00;;;;;;;25.05;100.00;97188.50;5037733;28;20201;-67
2023/09/03 09:02:50;;;;;;;2.00;1.15;;;;;;;25.19;100.00;97189.81;5038197;28;20208;-67
2023/09/03 09:05:17;;;;;;;1.55;1.27;;;;;;;25.36;100.00;97183.34;5038146;28;20209;-67
2023/09/03 09:07:43;;;;;;;2.45;1.27;;;;;;;25.41;100.00;97186.13;5036832;28;20707;-67
2023/09/03 09:10:14;;;;;;;1.88;1.23;;;;;;;25.55;100.00;97184.72;5038160;28;20620;-67
2023/09/03 09:12:44;;;;;;;2.00;1.15;;;;;;;25.58;100.00;97191.53;5037075;28;20205;-67
2023/09/03 09:15:11;;;;;;;1.25;0.73;;;;;;;25.30;100.00;97188.91;5038215;28;20812;-67
2023/09/03 09:17:38;;;;;;;2.03;1.20;;;;;;;25.29;100.00;97193.50;5037758;28;20221;-67
2023/09/03 09:20:05;;;;;;;1.85;1.00;;;;;;;25.53;100.00;97197.63;5037609;28;20305;-67
2023/09/03 09:22:38;;;;;;;1.10;0.73;;;;;;;25.64;100.00;97204.84;5038857;28;20752;-67
2023/09/03 09:25:06;;;;;;;2.47;1.00;;;;;;;25.83;100.00;97204.34;5037513;28;20690;-67
2023/09/03 09:27:36;;;;;;;1.67;0.82;;;;;;;26.05;100.00;97207.88;5037097;28;20232;-69
2023/09/03 09:30:10;;;;;;;1.65;0.90;;;;;;;26.25;100.00;97210.88;5038465;28;20582;-68
2023/09/03 09:32:36;;;;;;;2.33;0.93;;;;;;;25.82;99.45;97210.81;5037855;28;20991;-68
2023/09/03 09:35:03;;;;;;;2.13;0.93;;;;;;;25.82;100.00;97211.91;5037360;28;20217;-68
2023/09/03 09:37:37;;;;;;;1.20;0.60;;;;;;;26.42;100.00;97217.06;5037898;28;20228;-68
2023/09/03 09:40:05;;;;;;;1.05;0.77;;;;;;;26.61;100.00;97218.34;5037770;28;20200;-67
2023/09/03 09:42:32;;;;;;;2.15;1.40;;;;;;;27.14;100.00;97214.63;5037251;28;20316;-68
2023/09/03 09:45:00;;;;;;;8.32;1.95;;;;;;;28.07;99.84;97204.78;5037618;28;20201;-67
2023/09/03 09:47:27;;;;;;;1.67;1.10;;;;;;;27.69;97.64;97211.59;5036855;28;20327;-68
2023/09/03 09:49:54;;;;;;;1.33;0.88;;;;;;;27.36;91.42;97211.84;5036828;28;20338;-68
2023/09/03 09:52:20;;;;;;;12.50;7.22;;;;;;;27.95;93.67;97222.31;5036601;28;20201;-68
2023/09/03 09:54:48;;;;;;;2.15;1.33;;;;;;;28.10;92.31;97211.56;5037145;28;20592;-67
2023/09/03 09:57:16;;;;;;;1.30;1.00;;;;;;;28.01;91.86;97215.84;5035151;28;20628;-68
2023/09/03 09:59:42;;;;;;;1.13;0.68;;;;;;;27.89;91.83;97212.50;5036009;28;20212;-68
2023/09/03 10:02:14;;;;;;;2.58;0.95;;;;;;;28.94;89.89;97203.00;5036507;28;20202;-68
2023/09/03 10:04:42;;;;;;;0.55;0.55;;;;;;;28.38;88.24;97196.53;5037065;28;20221;-68
2023/09/03 10:07:09;;;;;;;0.85;0.60;;;;;;;28.25;81.12;97206.28;5035506;28;20229;-68
2023/09/03 10:09:36;;;;;;;1.05;0.47;;;;;;;27.45;83.58;97216.50;5037328;28;20234;-68
2023/09/03 10:12:02;;;;;;;0.90;0.85;;;;;;;27.44;88.19;97214.88;5036668;28;20211;-68
2023/09/03 10:14:29;;;;;;;0.90;0.60;;;;;;;27.79;85.74;97209.75;5036617;28;20205;-67
2023/09/03 10:16:57;;;;;;;0.95;0.77;;;;;;;27.83;83.63;97213.59;5036477;28;20221;-67
2023/09/03 10:19:28;;;;;;;0.98;0.60;;;;;;;27.57;82.07;97211.78;5036406;28;20553;-68
2023/09/03 10:21:55;;;;;;;0.88;0.63;;;;;;;27.78;86.29;97210.84;5036376;28;20209;-68
2023/09/03 10:24:24;;;;;;;0.90;0.60;;;;;;;27.51;87.72;97211.94;5035874;28;20220;-68
2023/09/03 10:26:54;;;;;;;3.53;0.70;;;;;;;27.23;87.58;97204.97;5036721;28;20236;-67
2023/09/03 10:29:23;;;;;;;2.47;0.73;;;;;;;27.05;90.34;97198.28;5036085;28;20205;-67
2023/09/03 10:31:52;;;;;;;1.27;0.77;;;;;;;27.01;93.01;97208.00;5036456;28;20689;-67
2023/09/03 10:34:19;;;;;;;1.30;0.80;;;;;;;26.78;94.21;97200.16;5036137;28;20738;-67
2023/09/03 10:37:07;;;;;;;1.55;0.68;;;;;;;27.60;89.02;97188.78;5035359;28;20228;-68
2023/09/03 10:39:34;;;;;;;0.93;0.73;;;;;;;27.65;90.29;97194.19;5036767;28;20209;-68
2023/09/03 10:42:27;;;;;;;0.45;0.40;;;;;;;28.47;87.97;97194.16;5036869;28;20710;-68
2023/09/03 10:44:55;;;;;;;0.60;0.60;;;;;;;27.59;84.92;97206.91;5035917;28;20262;-67
2023/09/03 10:47:22;;;;;;;0.90;0.60;;;;;;;27.20;83.13;97210.06;5034884;28;20225;-68
2023/09/03 10:49:49;;;;;;;2.38;0.93;;;;;;;27.85;80.96;97211.41;5036589;28;20197;-68
2023/09/03 10:52:40;;;;;;;1.98;0.57;;;;;;;27.88;81.68;97211.72;5036230;28;20208;-67
2023/09/03 10:55:14;;;;;;;1.98;0.80;;;;;;;27.33;83.25;97210.47;5035494;28;20209;-68
2023/09/03 10:57:41;;;;;;;1.20;0.70;;;;;;;27.86;79.24;97196.78;5034436;28;20238;-67
2023/09/03 11:00:16;;;;;;;0.68;0.50;;;;;;;28.16;79.98;97202.44;5036219;28;20219;-68
2023/09/03 11:02:44;;;;;;;0.93;0.65;;;;;;;28.37;83.37;97200.34;5036786;28;20208;-68
2023/09/03 11:05:20;;;;;;;0.95;0.70;;;;;;;28.25;78.77;97200.84;5036195;28;20259;-68
2023/09/03 11:07:50;;;;;;;4.18;0.90;;;;;;;28.06;77.44;97205.03;5035775;28;20597;-68
2023/09/03 11:10:42;;;;;;;0.32;0.32;;;;;;;28.53;71.65;97204.75;5036518;28;20274;-68
2023/09/03 11:13:10;;;;;;;1.00;0.60;;;;;;;28.03;77.18;97205.56;5036929;28;20209;-68
2023/09/03 11:15:37;;;;;;;0.75;0.50;;;;;;;27.92;74.72;97201.19;5035979;28;20579;-67
2023/09/03 11:18:03;;;;;;;1.67;0.50;;;;;;;27.77;73.05;97209.19;5035325;28;20213;-68
2023/09/03 11:20:32;;;;;;;1.75;0.57;;;;;;;28.63;72.10;97204.78;5034692;28;20206;-67
2023/09/03 11:23:01;;;;;;;0.70;0.60;;;;;;;28.32;72.29;97202.22;5035444;28;20193;-67
2023/09/03 11:25:34;;;;;;;2.78;0.70;;;;;;;28.58;68.70;97202.06;5035070;28;20197;-67
2023/09/03 11:28:02;;;;;;;0.60;0.60;;;;;;;28.47;71.41;97203.09;5034018;28;20229;-67
2023/09/03 11:30:29;;;;;;;1.10;0.70;;;;;;;28.31;69.89;97199.75;5034809;28;20197;-68